sensor_id;sensor_type;location;lat;lon;timestamp;temperature;humidity
13673;DHT22;6909;52.202;9.876;2023-10-08T00:02:04;13.00;99.90
13673;DHT22;6909;52.202;9.876;2023-10-08T00:04:32;12.80;99.90
13673;DHT22;6909;52.202;9.876;2023-10-08T00:07:02;12.70;99.90
13673;DHT22;6909;52.202;9.876;2023-10-08T00:09:30;12.60;99.90
13673;DHT22;6909;52.202;9.876;2023-10-08T00:12:03;12.60;99.90
13673;DHT22;6909;52.202;9.876;2023-10-08T00:14:29;12.60;99.90
13673;DHT22;6909;52.202;9.876;2023-10-08T00:16:57;12.60;99.90
13673;DHT22;6909;52.202;9.876;2023-10-08T00:19:25;12.60;99.90
13673;DHT22;6909;52.202;9.876;2023-10-08T00:21:58;12.50;99.90
13673;DHT22;6909;52.202;9.876;2023-10-08T00:24:30;12.50;99.90
13673;DHT22;6909;52.202;9.876;2023-10-08T00:26:58;12.40;99.90
13673;DHT22;6909;52.202;9.876;2023-10-08T00:29:27;12.40;99.90
13673;DHT22;6909;52.202;9.876;2023-10-08T00:31:57;12.40;99.90
13673;DHT22;6909;52.202;9.876;2023-10-08T00:34:24;12.40;99.90
13673;DHT22;6909;52.202;9.876;2023-10-08T00:36:52;12.40;99.90
13673;DHT22;6909;52.202;9.876;2023-10-08T00:39:19;12.40;99.90
13673;DHT22;6909;52.202;9.876;2023-10-08T00:41:50;12.40;99.90
13673;DHT22;6909;52.202;9.876;2023-10-08T00:44:20;12.40;99.90
13673;DHT22;6909;52.202;9.876;2023-10-08T00:46:50;12.40;99.90
13673;DHT22;6909;52.202;9.876;2023-10-08T00:49:20;12.40;99.90
13673;DHT22;6909;52.202;9.876;2023-10-08T00:52:06;12.50;99.90
13673;DHT22;6909;52.202;9.876;2023-10-08T00:54:52;12.40;99.90
13673;DHT22;6909;52.202;9.876;2023-10-08T00:57:32;12.30;99.90
13673;DHT22;6909;52.202;9.876;2023-10-08T01:00:02;12.30;99.90
13673;DHT22;6909;52.202;9.876;2023-10-08T01:02:33;12.30;99.90
13673;DHT22;6909;52.202;9.876;2023-10-08T01:05:12;12.30;99.90
13673;DHT22;6909;52.202;9.876;2023-10-08T01:07:40;12.30;99.90
13673;DHT22;6909;52.202;9.876;2023-10-08T01:10:10;12.30;99.90
13673;DHT22;6909;52.202;9.876;2023-10-08T01:12:39;12.10;99.90
13673;DHT22;6909;52.202;9.876;2023-10-08T01:15:20;12.10;99.90
13673;DHT22;6909;52.202;9.876;2023-10-08T01:17:50;11.90;99.90
13673;DHT22;6909;52.202;9.876;2023-10-08T01:20:23;12.00;99.90
13673;DHT22;6909;52.202;9.876;2023-10-08T01:23:01;11.80;99.90
13673;DHT22;6909;52.202;9.876;2023-10-08T01:25:29;11.80;99.90
13673;DHT22;6909;52.202;9.876;2023-10-08T01:27:56;11.80;99.90
13673;DHT22;6909;52.202;9.876;2023-10-08T01:30:26;11.70;99.90
13673;DHT22;6909;52.202;9.876;2023-10-08T01:32:59;11.60;99.90
13673;DHT22;6909;52.202;9.876;2023-10-08T01:35:28;11.60;99.90
13673;DHT22;6909;52.202;9.876;2023-10-08T01:37:57;11.60;99.90
13673;DHT22;6909;52.202;9.876;2023-10-08T01:40:27;11.40;99.90
13673;DHT22;6909;52.202;9.876;2023-10-08T01:42:55;11.10;99.90
13673;DHT22;6909;52.202;9.876;2023-10-08T01:45:25;11.00;99.90
13673;DHT22;6909;52.202;9.876;2023-10-08T01:47:52;10.90;99.90
13673;DHT22;6909;52.202;9.876;2023-10-08T01:50:20;10.80;99.90
13673;DHT22;6909;52.202;9.876;2023-10-08T01:52:47;10.60;99.90
13673;DHT22;6909;52.202;9.876;2023-10-08T01:55:14;10.40;99.90
13673;DHT22;6909;52.202;9.876;2023-10-08T01:57:45;10.20;99.90
13673;DHT22;6909;52.202;9.876;2023-10-08T02:00:13;10.20;99.90
13673;DHT22;6909;52.202;9.876;2023-10-08T02:02:44;10.20;99.90
13673;DHT22;6909;52.202;9.876;2023-10-08T02:05:11;10.20;99.90
13673;DHT22;6909;52.202;9.876;2023-10-08T02:07:40;10.20;99.90
13673;DHT22;6909;52.202;9.876;2023-10-08T02:10:08;10.10;99.90
13673;DHT22;6909;52.202;9.876;2023-10-08T02:12:36;10.10;99.90
13673;DHT22;6909;52.202;9.876;2023-10-08T02:15:05;10.00;99.90
13673;DHT22;6909;52.202;9.876;2023-10-08T02:17:32;10.00;99.90
13673;DHT22;6909;52.202;9.876;2023-10-08T02:19:59;10.10;99.90
13673;DHT22;6909;52.202;9.876;2023-10-08T02:22:26;10.20;99.90
13673;DHT22;6909;52.202;9.876;2023-10-08T02:24:52;10.30;99.90
13673;DHT22;6909;52.202;9.876;2023-10-08T02:27:20;10.30;99.90
13673;DHT22;6909;52.202;9.876;2023-10-08T02:29:48;10.40;99.90
13673;DHT22;6909;52.202;9.876;2023-10-08T02:32:17;10.40;99.90
13673;DHT22;6909;52.202;9.876;2023-10-08T02:34:44;10.50;99.90
13673;DHT22;6909;52.202;9.876;2023-10-08T02:37:11;10.30;99.90
13673;DHT22;6909;52.202;9.876;2023-10-08T02:39:38;10.30;99.90
13673;DHT22;6909;52.202;9.876;2023-10-08T02:42:06;10.40;99.90
13673;DHT22;6909;52.202;9.876;2023-10-08T02:44:36;10.40;99.90
13673;DHT22;6909;52.202;9.876;2023-10-08T02:47:07;10.40;99.90
13673;DHT22;6909;52.202;9.876;2023-10-08T02:49:36;10.50;99.90
13673;DHT22;6909;52.202;9.876;2023-10-08T02:52:06;10.60;99.90
13673;DHT22;6909;52.202;9.876;2023-10-08T02:54:34;10.60;99.90
13673;DHT22;6909;52.202;9.876;2023-10-08T02:57:03;10.70;99.90
13673;DHT22;6909;52.202;9.876;2023-10-08T02:59:36;10.70;99.90
13673;DHT22;6909;52.202;9.876;2023-10-08T03:02:06;10.60;99.90
13673;DHT22;6909;52.202;9.876;2023-10-08T03:04:40;10.60;99.90
13673;DHT22;6909;52.202;9.876;2023-10-08T03:07:08;10.70;99.90
13673;DHT22;6909;52.202;9.876;2023-10-08T03:09:37;10.70;99.90
13673;DHT22;6909;52.202;9.876;2023-10-08T03:12:07;10.70;99.90
13673;DHT22;6909;52.202;9.876;2023-10-08T03:14:36;10.70;99.90
13673;DHT22;6909;52.202;9.876;2023-10-08T03:17:14;10.70;99.90
13673;DHT22;6909;52.202;9.876;2023-10-08T03:19:47;10.70;99.90
13673;DHT22;6909;52.202;9.876;2023-10-08T03:22:13;10.60;99.90
13673;DHT22;6909;52.202;9.876;2023-10-08T03:24:44;10.70;99.90
13673;DHT22;6909;52.202;9.876;2023-10-08T03:27:14;10.60;99.90
13673;DHT22;6909;52.202;9.876;2023-10-08T03:29:46;10.70;99.90
13673;DHT22;6909;52.202;9.876;2023-10-08T03:32:14;10.80;99.90
13673;DHT22;6909;52.202;9.876;2023-10-08T03:34:46;10.80;99.90
13673;DHT22;6909;52.202;9.876;2023-10-08T03:37:14;10.80;99.90
13673;DHT22;6909;52.202;9.876;2023-10-08T03:39:47;10.80;99.90
13673;DHT22;6909;52.202;9.876;2023-10-08T03:42:26;10.80;99.90
13673;DHT22;6909;52.202;9.876;2023-10-08T03:44:59;10.80;99.90
13673;DHT22;6909;52.202;9.876;2023-10-08T03:47:36;10.80;99.90
13673;DHT22;6909;52.202;9.876;2023-10-08T03:50:05;10.70;99.90
13673;DHT22;6909;52.202;9.876;2023-10-08T03:52:33;10.80;99.90
13673;DHT22;6909;52.202;9.876;2023-10-08T03:55:03;10.80;99.90
13673;DHT22;6909;52.202;9.876;2023-10-08T03:57:39;10.80;99.90
13673;DHT22;6909;52.202;9.876;2023-10-08T04:00:14;10.90;99.90
13673;DHT22;6909;52.202;9.876;2023-10-08T04:02:44;10.90;99.90
13673;DHT22;6909;52.202;9.876;2023-10-08T04:05:22;10.90;99.90
13673;DHT22;6909;52.202;9.876;2023-10-08T04:07:53;10.90;99.90
13673;DHT22;6909;52.202;9.876;2023-10-08T04:10:42;10.90;99.90
13673;DHT22;6909;52.202;9.876;2023-10-08T04:13:27;10.90;99.90
13673;DHT22;6909;52.202;9.876;2023-10-08T04:15:56;10.90;99.90
13673;DHT22;6909;52.202;9.876;2023-10-08T04:18:23;10.90;99.90
13673;DHT22;6909;52.202;9.876;2023-10-08T04:20:51;10.90;99.90
13673;DHT22;6909;52.202;9.876;2023-10-08T04:23:30;10.90;99.90
13673;DHT22;6909;52.202;9.876;2023-10-08T04:25:57;10.90;99.90
13673;DHT22;6909;52.202;9.876;2023-10-08T04:28:24;11.00;99.90
13673;DHT22;6909;52.202;9.876;2023-10-08T04:30:54;11.00;99.90
13673;DHT22;6909;52.202;9.876;2023-10-08T04:33:27;10.90;99.90
13673;DHT22;6909;52.202;9.876;2023-10-08T04:35:58;11.00;99.90
13673;DHT22;6909;52.202;9.876;2023-10-08T04:38:27;11.00;99.90
13673;DHT22;6909;52.202;9.876;2023-10-08T04:40:55;11.10;99.90
13673;DHT22;6909;52.202;9.876;2023-10-08T04:43:27;11.00;99.90
13673;DHT22;6909;52.202;9.876;2023-10-08T04:45:56;11.00;99.90
13673;DHT22;6909;52.202;9.876;2023-10-08T04:48:23;11.10;99.90
13673;DHT22;6909;52.202;9.876;2023-10-08T04:50:51;11.10;99.90
13673;DHT22;6909;52.202;9.876;2023-10-08T04:53:26;11.10;99.90
13673;DHT22;6909;52.202;9.876;2023-10-08T04:55:58;11.10;99.90
13673;DHT22;6909;52.202;9.876;2023-10-08T04:58:28;11.10;99.90
13673;DHT22;6909;52.202;9.876;2023-10-08T05:00:59;11.10;99.90
13673;DHT22;6909;52.202;9.876;2023-10-08T05:03:43;11.10;99.90
13673;DHT22;6909;52.202;9.876;2023-10-08T05:06:22;11.10;99.90
13673;DHT22;6909;52.202;9.876;2023-10-08T05:09:12;11.10;99.90
13673;DHT22;6909;52.202;9.876;2023-10-08T05:11:39;11.20;99.90
13673;DHT22;6909;52.202;9.876;2023-10-08T05:14:32;11.20;99.90
13673;DHT22;6909;52.202;9.876;2023-10-08T05:17:06;11.10;99.90
13673;DHT22;6909;52.202;9.876;2023-10-08T05:19:35;11.20;99.90
13673;DHT22;6909;52.202;9.876;2023-10-08T05:22:21;11.20;99.90
13673;DHT22;6909;52.202;9.876;2023-10-08T05:25:10;11.10;99.90
13673;DHT22;6909;52.202;9.876;2023-10-08T05:27:52;11.10;99.90
13673;DHT22;6909;52.202;9.876;2023-10-08T05:30:34;11.00;99.90
13673;DHT22;6909;52.202;9.876;2023-10-08T05:33:09;11.10;99.90
13673;DHT22;6909;52.202;9.876;2023-10-08T05:35:51;11.10;99.90
13673;DHT22;6909;52.202;9.876;2023-10-08T05:38:28;11.10;99.90
13673;DHT22;6909;52.202;9.876;2023-10-08T05:41:15;11.10;99.90
13673;DHT22;6909;52.202;9.876;2023-10-08T05:43:56;11.20;99.90
13673;DHT22;6909;52.202;9.876;2023-10-08T05:46:37;11.20;99.90
13673;DHT22;6909;52.202;9.876;2023-10-08T05:49:16;11.20;99.90
13673;DHT22;6909;52.202;9.876;2023-10-08T05:52:04;11.20;99.90
13673;DHT22;6909;52.202;9.876;2023-10-08T05:54:48;11.20;99.90
13673;DHT22;6909;52.202;9.876;2023-10-08T05:57:43;11.20;99.90
13673;DHT22;6909;52.202;9.876;2023-10-08T06:00:17;11.20;99.90
13673;DHT22;6909;52.202;9.876;2023-10-08T06:03:13;11.20;99.90
13673;DHT22;6909;52.202;9.876;2023-10-08T06:05:59;11.20;99.90
13673;DHT22;6909;52.202;9.876;2023-10-08T06:08:43;11.30;99.90
13673;DHT22;6909;52.202;9.876;2023-10-08T06:11:18;11.30;99.90
13673;DHT22;6909;52.202;9.876;2023-10-08T06:14:03;11.30;99.90
13673;DHT22;6909;52.202;9.876;2023-10-08T06:16:39;11.30;99.90
13673;DHT22;6909;52.202;9.876;2023-10-08T06:19:10;11.30;99.90
13673;DHT22;6909;52.202;9.876;2023-10-08T06:21:37;11.30;99.90
13673;DHT22;6909;52.202;9.876;2023-10-08T06:24:05;11.40;99.90
13673;DHT22;6909;52.202;9.876;2023-10-08T06:26:36;11.40;99.90
13673;DHT22;6909;52.202;9.876;2023-10-08T06:29:12;11.40;99.90
13673;DHT22;6909;52.202;9.876;2023-10-08T06:31:52;11.40;99.90
13673;DHT22;6909;52.202;9.876;2023-10-08T06:34:21;11.50;99.90
13673;DHT22;6909;52.202;9.876;2023-10-08T06:36:50;11.50;99.90
13673;DHT22;6909;52.202;9.876;2023-10-08T06:39:20;11.60;99.90
13673;DHT22;6909;52.202;9.876;2023-10-08T06:41:54;11.60;99.90
13673;DHT22;6909;52.202;9.876;2023-10-08T06:44:23;11.60;99.90
13673;DHT22;6909;52.202;9.876;2023-10-08T06:46:51;11.60;99.90
13673;DHT22;6909;52.202;9.876;2023-10-08T06:49:21;11.60;99.90
13673;DHT22;6909;52.202;9.876;2023-10-08T06:51:50;11.60;99.90
13673;DHT22;6909;52.202;9.876;2023-10-08T06:54:17;11.70;99.90
13673;DHT22;6909;52.202;9.876;2023-10-08T06:56:44;11.90;99.90
13673;DHT22;6909;52.202;9.876;2023-10-08T06:59:17;11.90;99.90
13673;DHT22;6909;52.202;9.876;2023-10-08T07:01:45;12.00;99.90
13673;DHT22;6909;52.202;9.876;2023-10-08T07:04:13;12.00;99.90
13673;DHT22;6909;52.202;9.876;2023-10-08T07:06:40;12.10;99.90
13673;DHT22;6909;52.202;9.876;2023-10-08T07:09:10;12.30;99.90
13673;DHT22;6909;52.202;9.876;2023-10-08T07:11:48;12.40;99.90
13673;DHT22;6909;52.202;9.876;2023-10-08T07:14:16;12.60;99.90
13673;DHT22;6909;52.202;9.876;2023-10-08T07:16:43;12.80;99.90
13673;DHT22;6909;52.202;9.876;2023-10-08T07:19:14;12.90;99.90
13673;DHT22;6909;52.202;9.876;2023-10-08T07:21:45;13.00;99.90
13673;DHT22;6909;52.202;9.876;2023-10-08T07:24:13;13.20;99.90
13673;DHT22;6909;52.202;9.876;2023-10-08T07:26:43;13.10;99.90
13673;DHT22;6909;52.202;9.876;2023-10-08T07:29:13;13.10;99.90
13673;DHT22;6909;52.202;9.876;2023-10-08T07:31:43;13.70;99.90
13673;DHT22;6909;52.202;9.876;2023-10-08T07:34:16;14.40;99.90
13673;DHT22;6909;52.202;9.876;2023-10-08T07:36:45;14.70;99.90
13673;DHT22;6909;52.202;9.876;2023-10-08T07:39:12;14.60;99.90
13673;DHT22;6909;52.202;9.876;2023-10-08T07:41:50;14.80;99.90
13673;DHT22;6909;52.202;9.876;2023-10-08T07:44:19;14.80;99.90
13673;DHT22;6909;52.202;9.876;2023-10-08T07:46:48;14.50;99.90
13673;DHT22;6909;52.202;9.876;2023-10-08T07:49:16;14.60;99.90
13673;DHT22;6909;52.202;9.876;2023-10-08T07:51:44;14.50;99.90
13673;DHT22;6909;52.202;9.876;2023-10-08T07:54:17;14.60;99.90
13673;DHT22;6909;52.202;9.876;2023-10-08T07:56:46;14.60;99.90
13673;DHT22;6909;52.202;9.876;2023-10-08T07:59:14;14.80;99.90
13673;DHT22;6909;52.202;9.876;2023-10-08T08:01:42;14.90;99.90
13673;DHT22;6909;52.202;9.876;2023-10-08T08:04:09;15.10;99.90
13673;DHT22;6909;52.202;9.876;2023-10-08T08:06:38;15.00;99.90
13673;DHT22;6909;52.202;9.876;2023-10-08T08:09:05;15.00;99.90
13673;DHT22;6909;52.202;9.876;2023-10-08T08:11:43;15.10;99.90
13673;DHT22;6909;52.202;9.876;2023-10-08T08:14:12;15.50;99.90
13673;DHT22;6909;52.202;9.876;2023-10-08T08:16:42;15.40;99.90
13673;DHT22;6909;52.202;9.876;2023-10-08T08:19:11;15.30;99.90
13673;DHT22;6909;52.202;9.876;2023-10-08T08:21:42;15.10;99.90
13673;DHT22;6909;52.202;9.876;2023-10-08T08:24:11;15.00;99.90
13673;DHT22;6909;52.202;9.876;2023-10-08T08:26:39;15.10;99.90
13673;DHT22;6909;52.202;9.876;2023-10-08T08:29:10;15.00;99.90
13673;DHT22;6909;52.202;9.876;2023-10-08T08:31:40;14.80;99.90
13673;DHT22;6909;52.202;9.876;2023-10-08T08:34:11;15.00;99.90
13673;DHT22;6909;52.202;9.876;2023-10-08T08:36:46;15.10;99.90
13673;DHT22;6909;52.202;9.876;2023-10-08T08:39:15;15.20;99.90
13673;DHT22;6909;52.202;9.876;2023-10-08T08:41:59;15.20;99.90
13673;DHT22;6909;52.202;9.876;2023-10-08T08:44:28;15.20;99.90
13673;DHT22;6909;52.202;9.876;2023-10-08T08:46:58;15.40;99.90
13673;DHT22;6909;52.202;9.876;2023-10-08T08:49:27;15.30;99.90
13673;DHT22;6909;52.202;9.876;2023-10-08T08:51:57;15.30;99.90
13673;DHT22;6909;52.202;9.876;2023-10-08T08:54:26;15.20;99.90
13673;DHT22;6909;52.202;9.876;2023-10-08T08:56:56;15.10;99.90
13673;DHT22;6909;52.202;9.876;2023-10-08T08:59:23;15.10;99.90
13673;DHT22;6909;52.202;9.876;2023-10-08T09:01:50;15.00;99.90
13673;DHT22;6909;52.202;9.876;2023-10-08T09:04:27;15.00;99.90
13673;DHT22;6909;52.202;9.876;2023-10-08T09:06:54;15.00;99.90
13673;DHT22;6909;52.202;9.876;2023-10-08T09:09:23;15.00;99.90
13673;DHT22;6909;52.202;9.876;2023-10-08T09:11:52;15.00;99.90
13673;DHT22;6909;52.202;9.876;2023-10-08T09:14:21;14.80;99.90
13673;DHT22;6909;52.202;9.876;2023-10-08T09:16:49;15.00;99.90
13673;DHT22;6909;52.202;9.876;2023-10-08T09:19:16;14.90;99.90
13673;DHT22;6909;52.202;9.876;2023-10-08T09:21:59;14.90;99.90
13673;DHT22;6909;52.202;9.876;2023-10-08T09:24:28;14.90;99.90
13673;DHT22;6909;52.202;9.876;2023-10-08T09:26:55;14.90;99.90
13673;DHT22;6909;52.202;9.876;2023-10-08T09:29:24;15.00;99.90
13673;DHT22;6909;52.202;9.876;2023-10-08T09:31:54;15.00;99.90
13673;DHT22;6909;52.202;9.876;2023-10-08T09:34:26;15.20;99.90
13673;DHT22;6909;52.202;9.876;2023-10-08T09:36:53;15.20;99.90
13673;DHT22;6909;52.202;9.876;2023-10-08T09:39:22;15.10;99.90
13673;DHT22;6909;52.202;9.876;2023-10-08T09:41:53;15.30;99.90
13673;DHT22;6909;52.202;9.876;2023-10-08T09:44:22;15.50;99.90
13673;DHT22;6909;52.202;9.876;2023-10-08T09:46:53;15.50;99.90
13673;DHT22;6909;52.202;9.876;2023-10-08T09:49:28;15.40;99.90
13673;DHT22;6909;52.202;9.876;2023-10-08T09:52:01;15.40;99.90
13673;DHT22;6909;52.202;9.876;2023-10-08T09:54:35;15.40;99.90
13673;DHT22;6909;52.202;9.876;2023-10-08T09:57:07;15.20;99.90
13673;DHT22;6909;52.202;9.876;2023-10-08T09:59:34;15.00;99.90
13673;DHT22;6909;52.202;9.876;2023-10-08T10:02:01;15.00;99.90
13673;DHT22;6909;52.202;9.876;2023-10-08T10:04:30;15.00;99.90
13673;DHT22;6909;52.202;9.876;2023-10-08T10:07:07;14.90;99.90
13673;DHT22;6909;52.202;9.876;2023-10-08T10:09:35;14.70;99.90
13673;DHT22;6909;52.202;9.876;2023-10-08T10:12:02;14.80;99.90
13673;DHT22;6909;52.202;9.876;2023-10-08T10:14:42;14.80;99.90
13673;DHT22;6909;52.202;9.876;2023-10-08T10:17:12;14.70;99.90
13673;DHT22;6909;52.202;9.876;2023-10-08T10:19:40;14.60;99.90
13673;DHT22;6909;52.202;9.876;2023-10-08T10:22:13;14.70;99.90
13673;DHT22;6909;52.202;9.876;2023-10-08T10:24:41;14.80;99.90
13673;DHT22;6909;52.202;9.876;2023-10-08T10:27:12;14.80;99.90
13673;DHT22;6909;52.202;9.876;2023-10-08T10:29:41;14.80;99.90
13673;DHT22;6909;52.202;9.876;2023-10-08T10:32:11;14.80;99.90
13673;DHT22;6909;52.202;9.876;2023-10-08T10:34:40;14.90;99.90
13673;DHT22;6909;52.202;9.876;2023-10-08T10:37:07;15.20;99.90
13673;DHT22;6909;52.202;9.876;2023-10-08T10:39:51;15.20;99.90
13673;DHT22;6909;52.202;9.876;2023-10-08T10:42:20;15.40;99.90
13673;DHT22;6909;52.202;9.876;2023-10-08T10:44:49;15.70;99.90
13673;DHT22;6909;52.202;9.876;2023-10-08T10:47:18;15.40;99.90
13673;DHT22;6909;52.202;9.876;2023-10-08T10:49:54;15.20;99.90
13673;DHT22;6909;52.202;9.876;2023-10-08T10:52:36;15.30;99.90
13673;DHT22;6909;52.202;9.876;2023-10-08T10:55:12;15.60;99.90
13673;DHT22;6909;52.202;9.876;2023-10-08T10:57:50;15.80;99.90
13673;DHT22;6909;52.202;9.876;2023-10-08T11:00:22;16.00;99.90
13673;DHT22;6909;52.202;9.876;2023-10-08T11:03:07;16.20;99.90
13673;DHT22;6909;52.202;9.876;2023-10-08T11:05:42;16.00;99.90
13673;DHT22;6909;52.202;9.876;2023-10-08T11:08:15;15.90;99.90
13673;DHT22;6909;52.202;9.876;2023-10-08T11:10:47;15.80;99.90
13673;DHT22;6909;52.202;9.876;2023-10-08T11:13:17;15.80;99.90
13673;DHT22;6909;52.202;9.876;2023-10-08T11:15:47;15.60;99.90
13673;DHT22;6909;52.202;9.876;2023-10-08T11:18:19;15.80;99.90
13673;DHT22;6909;52.202;9.876;2023-10-08T11:20:48;16.00;99.90
13673;DHT22;6909;52.202;9.876;2023-10-08T11:23:33;16.20;99.90
13673;DHT22;6909;52.202;9.876;2023-10-08T11:26:01;16.00;99.90
13673;DHT22;6909;52.202;9.876;2023-10-08T11:28:29;16.10;99.90
13673;DHT22;6909;52.202;9.876;2023-10-08T11:31:01;16.20;99.90
13673;DHT22;6909;52.202;9.876;2023-10-08T11:33:34;16.00;99.90
13673;DHT22;6909;52.202;9.876;2023-10-08T11:36:03;16.30;99.90
13673;DHT22;6909;52.202;9.876;2023-10-08T11:38:38;16.40;99.90
13673;DHT22;6909;52.202;9.876;2023-10-08T11:41:12;16.20;42.20
13673;DHT22;6909;52.202;9.876;2023-10-08T11:43:50;16.30;99.90
13673;DHT22;6909;52.202;9.876;2023-10-08T11:46:22;16.50;99.90
13673;DHT22;6909;52.202;9.876;2023-10-08T11:48:51;16.40;99.90
13673;DHT22;6909;52.202;9.876;2023-10-08T11:51:18;16.40;99.90
13673;DHT22;6909;52.202;9.876;2023-10-08T11:53:49;16.40;99.90
13673;DHT22;6909;52.202;9.876;2023-10-08T11:56:16;16.20;99.90
13673;DHT22;6909;52.202;9.876;2023-10-08T11:58:47;16.00;99.90
13673;DHT22;6909;52.202;9.876;2023-10-08T12:01:14;16.00;99.90
13673;DHT22;6909;52.202;9.876;2023-10-08T12:03:44;16.10;99.90
13673;DHT22;6909;52.202;9.876;2023-10-08T12:06:12;16.00;99.90
13673;DHT22;6909;52.202;9.876;2023-10-08T12:08:41;16.00;99.90
13673;DHT22;6909;52.202;9.876;2023-10-08T12:11:14;16.10;99.90
13673;DHT22;6909;52.202;9.876;2023-10-08T12:13:42;16.20;99.90
13673;DHT22;6909;52.202;9.876;2023-10-08T12:16:12;16.30;99.90
13673;DHT22;6909;52.202;9.876;2023-10-08T12:18:45;16.20;99.90
13673;DHT22;6909;52.202;9.876;2023-10-08T12:21:14;16.10;1.00
13673;DHT22;6909;52.202;9.876;2023-10-08T12:23:43;16.00;1.00
13673;DHT22;6909;52.202;9.876;2023-10-08T12:26:12;16.00;1.00
13673;DHT22;6909;52.202;9.876;2023-10-08T12:28:41;16.00;1.00
13673;DHT22;6909;52.202;9.876;2023-10-08T12:31:10;15.90;1.00
13673;DHT22;6909;52.202;9.876;2023-10-08T12:33:37;15.90;99.90
13673;DHT22;6909;52.202;9.876;2023-10-08T12:36:07;15.90;99.90
13673;DHT22;6909;52.202;9.876;2023-10-08T12:38:37;15.80;99.90
13673;DHT22;6909;52.202;9.876;2023-10-08T12:41:04;15.80;99.90
13673;DHT22;6909;52.202;9.876;2023-10-08T12:43:38;15.80;99.90
13673;DHT22;6909;52.202;9.876;2023-10-08T12:46:08;15.90;99.90
13673;DHT22;6909;52.202;9.876;2023-10-08T12:48:44;15.80;84.40
13673;DHT22;6909;52.202;9.876;2023-10-08T12:51:15;15.80;5.80
13673;DHT22;6909;52.202;9.876;2023-10-08T12:53:42;15.80;1.00
13673;DHT22;6909;52.202;9.876;2023-10-08T12:56:16;15.80;1.00
13673;DHT22;6909;52.202;9.876;2023-10-08T12:58:47;15.70;1.00
13673;DHT22;6909;52.202;9.876;2023-10-08T13:01:14;15.60;1.00
13673;DHT22;6909;52.202;9.876;2023-10-08T13:03:43;15.50;1.00
13673;DHT22;6909;52.202;9.876;2023-10-08T13:06:15;15.40;1.00
13673;DHT22;6909;52.202;9.876;2023-10-08T13:08:47;15.40;1.00
13673;DHT22;6909;52.202;9.876;2023-10-08T13:11:14;15.40;1.00
13673;DHT22;6909;52.202;9.876;2023-10-08T13:13:47;15.50;1.00
13673;DHT22;6909;52.202;9.876;2023-10-08T13:16:14;15.40;1.00
13673;DHT22;6909;52.202;9.876;2023-10-08T13:18:40;15.30;1.00
13673;DHT22;6909;52.202;9.876;2023-10-08T13:21:08;15.30;1.00
13673;DHT22;6909;52.202;9.876;2023-10-08T13:23:37;15.30;1.00
13673;DHT22;6909;52.202;9.876;2023-10-08T13:26:05;15.30;1.00
13673;DHT22;6909;52.202;9.876;2023-10-08T13:28:33;15.20;1.00
13673;DHT22;6909;52.202;9.876;2023-10-08T13:31:00;15.30;1.00
13673;DHT22;6909;52.202;9.876;2023-10-08T13:33:35;15.30;99.90
13673;DHT22;6909;52.202;9.876;2023-10-08T13:36:04;15.30;1.00
13673;DHT22;6909;52.202;9.876;2023-10-08T13:38:33;15.20;1.00
13673;DHT22;6909;52.202;9.876;2023-10-08T13:41:02;15.40;1.00
13673;DHT22;6909;52.202;9.876;2023-10-08T13:43:29;15.40;99.90
13673;DHT22;6909;52.202;9.876;2023-10-08T13:46:04;15.50;99.90
13673;DHT22;6909;52.202;9.876;2023-10-08T13:48:33;15.60;1.00
13673;DHT22;6909;52.202;9.876;2023-10-08T13:51:01;15.60;1.00
13673;DHT22;6909;52.202;9.876;2023-10-08T13:53:30;15.60;99.90
13673;DHT22;6909;52.202;9.876;2023-10-08T13:55:58;15.60;99.90
13673;DHT22;6909;52.202;9.876;2023-10-08T13:58:28;15.60;99.90
13673;DHT22;6909;52.202;9.876;2023-10-08T14:01:00;15.50;1.00
13673;DHT22;6909;52.202;9.876;2023-10-08T14:03:39;15.60;1.00
13673;DHT22;6909;52.202;9.876;2023-10-08T14:06:07;15.80;20.90
13673;DHT22;6909;52.202;9.876;2023-10-08T14:08:35;15.90;1.00
13673;DHT22;6909;52.202;9.876;2023-10-08T14:11:02;15.80;1.00
13673;DHT22;6909;52.202;9.876;2023-10-08T14:13:30;15.90;1.00
13673;DHT22;6909;52.202;9.876;2023-10-08T14:15:58;16.00;1.00
13673;DHT22;6909;52.202;9.876;2023-10-08T14:18:26;16.10;1.00
13673;DHT22;6909;52.202;9.876;2023-10-08T14:20:54;16.00;1.00
13673;DHT22;6909;52.202;9.876;2023-10-08T14:23:21;15.90;1.00
13673;DHT22;6909;52.202;9.876;2023-10-08T14:25:50;16.00;1.00
13673;DHT22;6909;52.202;9.876;2023-10-08T14:28:17;16.10;1.00
13673;DHT22;6909;52.202;9.876;2023-10-08T14:31:07;16.10;1.00
13673;DHT22;6909;52.202;9.876;2023-10-08T14:33:34;16.00;1.00
13673;DHT22;6909;52.202;9.876;2023-10-08T14:36:08;15.80;1.00
13673;DHT22;6909;52.202;9.876;2023-10-08T14:38:55;15.60;1.00
13673;DHT22;6909;52.202;9.876;2023-10-08T14:41:41;15.60;1.00
13673;DHT22;6909;52.202;9.876;2023-10-08T14:44:37;15.60;1.00
13673;DHT22;6909;52.202;9.876;2023-10-08T14:47:06;15.40;30.70
13673;DHT22;6909;52.202;9.876;2023-10-08T14:49:33;15.40;80.90
13673;DHT22;6909;52.202;9.876;2023-10-08T14:52:08;15.50;1.00
13673;DHT22;6909;52.202;9.876;2023-10-08T14:54:36;15.50;1.00
13673;DHT22;6909;52.202;9.876;2023-10-08T14:57:03;15.50;1.00
13673;DHT22;6909;52.202;9.876;2023-10-08T14:59:31;15.50;1.00
13673;DHT22;6909;52.202;9.876;2023-10-08T15:01:58;15.50;1.00
13673;DHT22;6909;52.202;9.876;2023-10-08T15:04:26;15.60;1.00
13673;DHT22;6909;52.202;9.876;2023-10-08T15:06:54;15.60;1.00
13673;DHT22;6909;52.202;9.876;2023-10-08T15:09:20;15.60;1.00
13673;DHT22;6909;52.202;9.876;2023-10-08T15:11:49;15.50;1.00
13673;DHT22;6909;52.202;9.876;2023-10-08T15:14:16;15.50;1.00
13673;DHT22;6909;52.202;9.876;2023-10-08T15:16:44;15.60;1.00
13673;DHT22;6909;52.202;9.876;2023-10-08T15:19:17;15.60;1.00
13673;DHT22;6909;52.202;9.876;2023-10-08T15:21:46;15.50;1.00
13673;DHT22;6909;52.202;9.876;2023-10-08T15:24:16;15.60;1.00
13673;DHT22;6909;52.202;9.876;2023-10-08T15:26:44;15.70;1.00
13673;DHT22;6909;52.202;9.876;2023-10-08T15:29:12;15.60;1.00
13673;DHT22;6909;52.202;9.876;2023-10-08T15:31:39;15.40;1.00
13673;DHT22;6909;52.202;9.876;2023-10-08T15:34:07;15.40;1.00
13673;DHT22;6909;52.202;9.876;2023-10-08T15:36:34;15.50;1.00
13673;DHT22;6909;52.202;9.876;2023-10-08T15:39:02;15.50;1.00
13673;DHT22;6909;52.202;9.876;2023-10-08T15:41:30;15.40;99.90
13673;DHT22;6909;52.202;9.876;2023-10-08T15:43:57;15.40;1.00
13673;DHT22;6909;52.202;9.876;2023-10-08T15:46:24;15.30;10.00
13673;DHT22;6909;52.202;9.876;2023-10-08T15:48:51;15.30;92.10
13673;DHT22;6909;52.202;9.876;2023-10-08T15:51:18;15.20;99.90
13673;DHT22;6909;52.202;9.876;2023-10-08T15:53:45;15.10;1.00
13673;DHT22;6909;52.202;9.876;2023-10-08T15:56:13;15.00;99.90
13673;DHT22;6909;52.202;9.876;2023-10-08T15:58:40;15.00;1.00
13673;DHT22;6909;52.202;9.876;2023-10-08T16:01:07;15.00;1.00
13673;DHT22;6909;52.202;9.876;2023-10-08T16:03:33;15.00;99.90
13673;DHT22;6909;52.202;9.876;2023-10-08T16:06:00;14.90;99.90
13673;DHT22;6909;52.202;9.876;2023-10-08T16:08:27;14.90;1.00
13673;DHT22;6909;52.202;9.876;2023-10-08T16:10:54;14.80;99.90
13673;DHT22;6909;52.202;9.876;2023-10-08T16:13:25;14.70;99.90
13673;DHT22;6909;52.202;9.876;2023-10-08T16:15:52;14.60;1.00